createdAt,value
2017-10-28T00:00:42.088Z,1025.81
2017-10-28T00:01:41.999Z,1025.77
2017-10-28T00:02:41.999Z,1025.77
2017-10-28T00:03:41.940Z,1025.76
2017-10-28T00:04:42.015Z,1025.77
2017-10-28T00:05:41.890Z,1025.74
2017-10-28T00:06:41.925Z,1025.69
2017-10-28T00:07:41.838Z,1025.67
2017-10-28T00:08:41.828Z,1025.69
2017-10-28T00:09:41.786Z,1025.63
2017-10-28T00:10:41.844Z,1025.68
2017-10-28T00:11:41.735Z,1025.65
2017-10-28T00:12:41.752Z,1025.69
2017-10-28T00:13:41.677Z,1025.66
2017-10-28T00:14:41.781Z,1025.73
2017-10-28T00:15:41.629Z,1025.72
2017-10-28T00:16:41.674Z,1025.72
2017-10-28T00:17:41.573Z,1025.74
2017-10-28T00:18:41.596Z,1025.71
2017-10-28T00:19:41.524Z,1025.63
2017-10-28T00:20:41.597Z,1025.58
2017-10-28T00:21:41.469Z,1025.57
2017-10-28T00:22:41.514Z,1025.56
2017-10-28T00:23:41.415Z,1025.55
2017-10-28T00:24:41.417Z,1025.54
2017-10-28T00:25:41.363Z,1025.51
2017-10-28T00:26:41.429Z,1025.51
2017-10-28T00:27:41.308Z,1025.53
2017-10-28T00:28:41.341Z,1025.51
2017-10-28T00:29:41.254Z,1025.54
2017-10-28T00:30:41.249Z,1025.52
2017-10-28T00:31:41.205Z,1025.53
2017-10-28T00:32:41.259Z,1025.51
2017-10-28T00:33:41.162Z,1025.44
2017-10-28T00:34:41.171Z,1025.48
2017-10-28T00:35:41.098Z,1025.50
2017-10-28T00:36:41.179Z,1025.50
2017-10-28T00:37:41.049Z,1025.48
2017-10-28T00:38:41.091Z,1025.47
2017-10-28T00:39:40.995Z,1025.50
2017-10-28T00:40:41.002Z,1025.45
2017-10-28T00:41:40.941Z,1025.42
2017-10-28T00:42:41.013Z,1025.40
2017-10-28T00:43:40.891Z,1025.35
2017-10-28T00:44:40.924Z,1025.36
2017-10-28T00:45:40.834Z,1025.34
2017-10-28T00:46:40.835Z,1025.34
2017-10-28T00:47:40.785Z,1025.29
2017-10-28T00:48:40.848Z,1025.31
2017-10-28T00:49:40.726Z,1025.23
2017-10-28T00:50:40.759Z,1025.23
2017-10-28T00:51:40.677Z,1025.20
2017-10-28T00:52:40.670Z,1025.18
2017-10-28T00:53:40.625Z,1025.18
2017-10-28T00:54:40.677Z,1025.17
2017-10-28T00:55:40.571Z,1025.17
2017-10-28T00:56:40.593Z,1025.15
2017-10-28T00:57:40.518Z,1025.14
2017-10-28T00:58:40.607Z,1025.11
2017-10-28T00:59:40.468Z,1025.14
2017-10-28T01:00:40.519Z,1025.12
2017-10-28T01:01:40.416Z,1025.06
2017-10-28T01:02:40.425Z,1025.08
2017-10-28T01:03:40.363Z,1025.04
2017-10-28T01:04:40.437Z,1025.05
2017-10-28T01:05:40.310Z,1025.02
2017-10-28T01:06:40.349Z,1024.98
2017-10-28T01:07:40.258Z,1024.91
2017-10-28T01:08:40.256Z,1024.95
2017-10-28T01:09:40.211Z,1024.90
2017-10-28T01:10:40.270Z,1024.91
2017-10-28T01:11:40.150Z,1024.86
2017-10-28T01:12:40.182Z,1024.89
2017-10-28T01:13:40.098Z,1024.85
2017-10-28T01:14:40.087Z,1024.83
2017-10-28T01:15:40.047Z,1024.81
2017-10-28T01:16:40.103Z,1024.80
2017-10-28T01:17:39.993Z,1024.79
2017-10-28T01:18:40.013Z,1024.76
2017-10-28T01:19:39.937Z,1024.77
2017-10-28T01:20:40.025Z,1024.71
2017-10-28T01:21:39.886Z,1024.69
2017-10-28T01:22:39.930Z,1024.66
2017-10-28T01:23:39.834Z,1024.67
2017-10-28T01:24:39.843Z,1024.63
2017-10-28T01:25:39.779Z,1024.69
2017-10-28T01:26:39.855Z,1024.70
2017-10-28T01:27:39.728Z,1024.67
2017-10-28T01:28:39.762Z,1024.61
2017-10-28T01:29:39.679Z,1024.60
2017-10-28T01:30:39.675Z,1024.66
2017-10-28T01:31:39.621Z,1024.74
2017-10-28T01:32:39.690Z,1024.67
2017-10-28T01:33:39.574Z,1024.68
2017-10-28T01:34:39.597Z,1024.64
2017-10-28T01:35:39.516Z,1024.62
2017-10-28T01:36:39.510Z,1024.63
2017-10-28T01:37:39.468Z,1024.54
2017-10-28T01:38:39.518Z,1024.57
2017-10-28T01:39:39.409Z,1024.53
2017-10-28T01:40:39.428Z,1024.43
2017-10-28T01:41:39.355Z,1024.44
2017-10-28T01:42:39.442Z,1024.40
2017-10-28T01:43:39.304Z,1024.33
2017-10-28T01:44:39.352Z,1024.27
2017-10-28T01:45:39.250Z,1024.25
2017-10-28T01:46:39.264Z,1024.27
2017-10-28T01:47:39.202Z,1024.30
2017-10-28T01:48:39.276Z,1024.27
2017-10-28T01:49:39.154Z,1024.25
2017-10-28T01:50:39.186Z,1024.17
2017-10-28T01:51:39.091Z,1024.20
2017-10-28T01:52:39.100Z,1024.17
2017-10-28T01:53:39.040Z,1024.17
2017-10-28T01:54:39.112Z,1024.15
2017-10-28T01:55:38.990Z,1024.13
2017-10-28T01:56:39.019Z,1024.13
2017-10-28T01:57:38.933Z,1024.16
2017-10-28T01:58:38.931Z,1024.15
2017-10-28T01:59:38.885Z,1024.09
2017-10-28T02:00:38.949Z,1024.13
2017-10-28T02:01:38.830Z,1024.09
2017-10-28T02:02:38.855Z,1024.06
2017-10-28T02:03:38.777Z,1024.01
2017-10-28T02:04:38.762Z,1023.97
2017-10-28T02:05:38.723Z,1023.94
2017-10-28T02:06:38.774Z,1023.94
2017-10-28T02:07:38.672Z,1023.94
2017-10-28T02:08:38.694Z,1023.90
2017-10-28T02:09:38.616Z,1023.90
2017-10-28T02:10:38.703Z,1023.90
2017-10-28T02:11:38.564Z,1023.86
2017-10-28T02:12:38.621Z,1023.82
2017-10-28T02:13:38.519Z,1023.81
2017-10-28T02:14:38.513Z,1023.82
2017-10-28T02:15:38.454Z,1023.77
2017-10-28T02:16:38.532Z,1023.77
2017-10-28T02:17:38.409Z,1023.78
2017-10-28T02:18:38.437Z,1023.73
2017-10-28T02:19:38.353Z,1023.66
2017-10-28T02:20:38.352Z,1023.67
2017-10-28T02:21:38.298Z,1023.68
2017-10-28T02:22:38.362Z,1023.72
2017-10-28T02:23:38.244Z,1023.74
2017-10-28T02:24:38.279Z,1023.73
2017-10-28T02:25:38.192Z,1023.70
2017-10-28T02:26:38.183Z,1023.68
2017-10-28T02:27:38.143Z,1023.64
2017-10-28T02:28:38.196Z,1023.63
2017-10-28T02:29:38.097Z,1023.53
2017-10-28T02:30:38.109Z,1023.51
2017-10-28T02:31:38.030Z,1023.37
2017-10-28T02:32:38.133Z,1023.37
2017-10-28T02:33:37.987Z,1023.36
2017-10-28T02:34:38.034Z,1023.26
2017-10-28T02:35:37.930Z,1023.21
2017-10-28T02:36:37.949Z,1023.21
2017-10-28T02:37:37.873Z,1023.19
2017-10-28T02:38:37.956Z,1023.22
2017-10-28T02:39:37.821Z,1023.30
2017-10-28T02:40:37.868Z,1023.30
2017-10-28T02:41:37.774Z,1023.21
2017-10-28T02:42:37.777Z,1023.21
2017-10-28T02:43:37.712Z,1023.20
2017-10-28T02:44:37.788Z,1023.18
2017-10-28T02:45:37.662Z,1023.14
2017-10-28T02:46:37.696Z,1023.11
2017-10-28T02:47:37.617Z,1023.08
2017-10-28T02:48:37.619Z,1023.04
2017-10-28T02:49:37.562Z,1023.01
2017-10-28T02:50:37.612Z,1023.01
2017-10-28T02:51:37.499Z,1023.02
2017-10-28T02:52:37.526Z,1023.00
2017-10-28T02:53:37.449Z,1022.97
2017-10-28T02:54:37.436Z,1022.95
2017-10-28T02:55:37.395Z,1022.95
2017-10-28T02:56:37.446Z,1022.93
2017-10-28T02:57:37.339Z,1022.95
2017-10-28T02:58:37.358Z,1022.90
2017-10-28T02:59:37.292Z,1022.91
2017-10-28T03:00:37.368Z,1022.98
2017-10-28T03:01:37.237Z,1022.90
2017-10-28T03:02:37.277Z,1022.94
2017-10-28T03:03:37.179Z,1022.95
2017-10-28T03:04:37.190Z,1022.97
2017-10-28T03:05:37.127Z,1022.93
2017-10-28T03:06:37.200Z,1022.91
2017-10-28T03:07:37.077Z,1022.90
2017-10-28T03:08:37.112Z,1022.80
2017-10-28T03:09:37.021Z,1022.80
2017-10-28T03:10:37.020Z,1022.74
2017-10-28T03:11:36.973Z,1022.81
2017-10-28T03:12:37.033Z,1022.75
2017-10-28T03:13:36.919Z,1022.79
2017-10-28T03:14:36.942Z,1022.78
2017-10-28T03:15:36.880Z,1022.78
2017-10-28T03:16:36.857Z,1022.78
2017-10-28T03:17:36.808Z,1022.75
2017-10-28T03:18:36.866Z,1022.73
2017-10-28T03:19:36.755Z,1022.76
2017-10-28T03:20:36.774Z,1022.71
2017-10-28T03:21:36.701Z,1022.66
2017-10-28T03:22:36.790Z,1022.63
2017-10-28T03:23:36.648Z,1022.61
2017-10-28T03:24:36.699Z,1022.54
2017-10-28T03:25:36.594Z,1022.52
2017-10-28T03:26:36.614Z,1022.54
2017-10-28T03:27:36.539Z,1022.53
2017-10-28T03:28:36.625Z,1022.45
2017-10-28T03:29:36.486Z,1022.49
2017-10-28T03:30:36.533Z,1022.47
2017-10-28T03:31:36.436Z,1022.43
2017-10-28T03:32:36.446Z,1022.43
2017-10-28T03:33:36.378Z,1022.38
2017-10-28T03:34:36.455Z,1022.37
2017-10-28T03:35:36.330Z,1022.36
2017-10-28T03:36:36.363Z,1022.32
2017-10-28T03:37:36.277Z,1022.24
2017-10-28T03:38:36.271Z,1022.27
2017-10-28T03:39:36.224Z,1022.31
2017-10-28T03:40:36.285Z,1022.26
2017-10-28T03:41:36.175Z,1022.25
2017-10-28T03:42:36.196Z,1022.27
2017-10-28T03:43:36.113Z,1022.24
2017-10-28T03:44:36.107Z,1022.22
2017-10-28T03:45:36.059Z,1022.28
2017-10-28T03:46:36.121Z,1022.17
2017-10-28T03:47:36.009Z,1022.17
2017-10-28T03:48:36.030Z,1022.13
2017-10-28T03:49:35.954Z,1022.07
2017-10-28T03:50:35.944Z,1021.97
2017-10-28T03:51:35.901Z,1021.96
2017-10-28T03:52:35.955Z,1021.95
2017-10-28T03:53:35.845Z,1021.91
2017-10-28T03:54:35.866Z,1021.84
2017-10-28T03:55:35.791Z,1021.78
2017-10-28T03:56:35.880Z,1021.75
2017-10-28T03:57:35.742Z,1021.72
2017-10-28T03:58:35.784Z,1021.69
2017-10-28T03:59:35.684Z,1021.70
2017-10-28T04:00:35.699Z,1021.64
2017-10-28T04:01:35.631Z,1021.53
2017-10-28T04:02:35.709Z,1021.50
2017-10-28T04:03:35.577Z,1021.47
2017-10-28T04:04:35.622Z,1021.44
2017-10-28T04:05:35.520Z,1021.52
2017-10-28T04:06:35.529Z,1021.52
2017-10-28T04:07:35.465Z,1021.52
2017-10-28T04:08:35.539Z,1021.47
2017-10-28T04:09:35.416Z,1021.47
2017-10-28T04:10:35.452Z,1021.41
2017-10-28T04:11:35.360Z,1021.39
2017-10-28T04:12:35.362Z,1021.40
2017-10-28T04:13:35.303Z,1021.36
2017-10-28T04:14:35.371Z,1021.39
2017-10-28T04:15:35.252Z,1021.37
2017-10-28T04:16:35.285Z,1021.41
2017-10-28T04:17:35.204Z,1021.44
2017-10-28T04:18:35.195Z,1021.44
2017-10-28T04:19:35.141Z,1021.44
2017-10-28T04:20:35.203Z,1021.44
2017-10-28T04:21:35.090Z,1021.42
2017-10-28T04:22:35.116Z,1021.48
2017-10-28T04:23:35.039Z,1021.49
2017-10-28T04:24:35.024Z,1021.48
2017-10-28T04:25:34.978Z,1021.40
2017-10-28T04:26:35.039Z,1021.38
2017-10-28T04:27:34.926Z,1021.40
2017-10-28T04:28:34.953Z,1021.45
2017-10-28T04:29:34.868Z,1021.48
2017-10-28T04:30:34.864Z,1021.52
2017-10-28T04:31:34.828Z,1021.49
2017-10-28T04:32:34.873Z,1021.59
2017-10-28T04:33:34.763Z,1021.55
2017-10-28T04:34:35.815Z,1021.57
2017-10-28T04:35:34.710Z,1021.65
2017-10-28T04:36:34.793Z,1021.66
2017-10-28T04:37:34.651Z,1021.66
2017-10-28T04:38:34.704Z,1021.68
2017-10-28T04:39:34.599Z,1021.57
2017-10-28T04:40:34.613Z,1021.65
2017-10-28T04:41:34.541Z,1021.64
2017-10-28T04:42:34.634Z,1021.58
2017-10-28T04:43:34.488Z,1021.59
2017-10-28T04:44:34.533Z,1021.64
2017-10-28T04:45:34.436Z,1021.66
2017-10-28T04:46:34.447Z,1021.61
2017-10-28T04:47:34.376Z,1021.61
2017-10-28T04:48:34.462Z,1021.64
2017-10-28T04:49:34.333Z,1021.67
2017-10-28T04:50:34.372Z,1021.64
2017-10-28T04:51:34.271Z,1021.55
2017-10-28T04:52:34.282Z,1021.52
2017-10-28T04:53:34.218Z,1021.53
2017-10-28T04:54:34.291Z,1021.51
2017-10-28T04:55:34.161Z,1021.44
2017-10-28T04:56:34.204Z,1021.47
2017-10-28T04:57:34.104Z,1021.42
2017-10-28T04:58:34.115Z,1021.46
2017-10-28T04:59:34.054Z,1021.37
2017-10-28T05:00:34.131Z,1021.36
2017-10-28T05:01:34.002Z,1021.28
2017-10-28T05:02:34.030Z,1021.39
2017-10-28T05:03:33.951Z,1021.37
2017-10-28T05:04:33.942Z,1021.29
2017-10-28T05:05:33.891Z,1021.20
2017-10-28T05:06:33.953Z,1021.14
2017-10-28T05:07:33.832Z,1021.03
2017-10-28T05:08:33.864Z,1021.02
2017-10-28T05:09:33.783Z,1020.96
2017-10-28T05:10:33.778Z,1020.93
2017-10-28T05:11:33.729Z,1020.89
2017-10-28T05:12:33.786Z,1020.94
2017-10-28T05:13:33.670Z,1020.89
2017-10-28T05:14:33.698Z,1020.90
2017-10-28T05:15:33.612Z,1020.76
2017-10-28T05:16:33.608Z,1020.73
2017-10-28T05:17:33.556Z,1020.70
2017-10-28T05:18:33.620Z,1020.71
2017-10-28T05:19:33.506Z,1020.65
2017-10-28T05:20:33.530Z,1020.65
2017-10-28T05:21:33.454Z,1020.61
2017-10-28T05:22:33.438Z,1020.53
2017-10-28T05:23:33.397Z,1020.50
2017-10-28T05:24:33.453Z,1020.44
2017-10-28T05:25:33.341Z,1020.38
2017-10-28T05:26:33.368Z,1020.32
2017-10-28T05:27:33.285Z,1020.35
2017-10-28T05:28:33.275Z,1020.40
2017-10-28T05:29:33.225Z,1020.37
2017-10-28T05:30:33.286Z,1020.34
2017-10-28T05:31:33.175Z,1020.34
2017-10-28T05:32:33.198Z,1020.28
2017-10-28T05:33:33.126Z,1020.29
2017-10-28T05:34:33.107Z,1020.28
2017-10-28T05:35:33.064Z,1020.29
2017-10-28T05:36:33.123Z,1020.22
2017-10-28T05:37:33.014Z,1020.12
2017-10-28T05:38:33.033Z,1020.13
2017-10-28T05:39:32.950Z,1020.20
2017-10-28T05:40:32.943Z,1020.16
2017-10-28T05:41:32.899Z,1020.18
2017-10-28T05:42:32.955Z,1020.26
2017-10-28T05:43:32.851Z,1020.25
2017-10-28T05:44:32.865Z,1020.23
2017-10-28T05:45:32.786Z,1020.25
2017-10-28T05:46:32.873Z,1020.34
2017-10-28T05:47:32.734Z,1020.41
2017-10-28T05:48:32.787Z,1020.39
2017-10-28T05:49:32.676Z,1020.38
2017-10-28T05:50:32.695Z,1020.36
2017-10-28T05:51:32.624Z,1020.35
2017-10-28T05:52:32.720Z,1020.27
2017-10-28T05:53:32.569Z,1020.25
2017-10-28T05:54:32.618Z,1020.29
2017-10-28T05:55:32.514Z,1020.15
2017-10-28T05:56:32.524Z,1020.14
2017-10-28T05:57:32.455Z,1020.10
2017-10-28T05:58:32.542Z,1020.08
2017-10-28T05:59:32.403Z,1020.05
2017-10-28T06:00:32.460Z,1019.99
2017-10-28T06:01:32.347Z,1020.05
2017-10-28T06:02:32.356Z,1020.15
2017-10-28T06:03:32.293Z,1020.13
2017-10-28T06:04:32.372Z,1020.14
2017-10-28T06:05:32.236Z,1020.18
2017-10-28T06:06:32.278Z,1020.20
2017-10-28T06:07:32.180Z,1020.11
2017-10-28T06:08:32.200Z,1020.15
2017-10-28T06:09:32.130Z,1020.14
2017-10-28T06:10:32.209Z,1020.10
2017-10-28T06:11:32.076Z,1020.18
2017-10-28T06:12:32.114Z,1020.16
2017-10-28T06:13:32.017Z,1020.15
2017-10-28T06:14:32.024Z,1020.18
2017-10-28T06:15:31.967Z,1020.04
2017-10-28T06:16:32.041Z,1020.08
2017-10-28T06:17:31.907Z,1020.09
2017-10-28T06:18:31.949Z,1020.06
2017-10-28T06:19:31.852Z,1020.11
2017-10-28T06:20:31.862Z,1020.12
2017-10-28T06:21:31.806Z,1020.07
2017-10-28T06:22:31.868Z,1020.02
2017-10-28T06:23:31.742Z,1019.98
2017-10-28T06:24:31.779Z,1019.90
2017-10-28T06:25:31.689Z,1019.91
2017-10-28T06:26:32.714Z,1019.87
2017-10-28T06:27:31.629Z,1019.88
2017-10-28T06:28:31.698Z,1019.79
2017-10-28T06:29:31.580Z,1019.83
2017-10-28T06:30:31.611Z,1019.74
2017-10-28T06:31:31.524Z,1019.81
2017-10-28T06:32:31.523Z,1019.74
2017-10-28T06:33:31.469Z,1019.80
2017-10-28T06:34:31.536Z,1019.70
2017-10-28T06:35:31.417Z,1019.83
2017-10-28T06:36:31.446Z,1019.75
2017-10-28T06:37:31.359Z,1019.86
2017-10-28T06:38:31.352Z,1019.87
2017-10-28T06:39:31.305Z,1019.84
2017-10-28T06:40:31.365Z,1019.80
2017-10-28T06:41:31.250Z,1019.86
2017-10-28T06:42:31.276Z,1019.87
2017-10-28T06:43:31.195Z,1019.73
2017-10-28T06:44:31.188Z,1019.85
2017-10-28T06:45:31.135Z,1019.79
2017-10-28T06:46:31.199Z,1019.71
2017-10-28T06:47:31.084Z,1019.65
2017-10-28T06:48:31.110Z,1019.62
2017-10-28T06:49:31.030Z,1019.68
2017-10-28T06:50:31.023Z,1019.69
2017-10-28T06:51:30.970Z,1019.73
2017-10-28T06:52:31.036Z,1019.73
2017-10-28T06:53:30.920Z,1019.70
2017-10-28T06:54:30.945Z,1019.73
2017-10-28T06:55:30.868Z,1019.71
2017-10-28T06:56:30.851Z,1019.72
2017-10-28T06:57:30.807Z,1019.74
2017-10-28T06:58:30.865Z,1019.75
2017-10-28T06:59:30.759Z,1019.69
2017-10-28T07:00:30.774Z,1019.67
2017-10-28T07:01:30.702Z,1019.58
2017-10-28T07:02:30.817Z,1019.56
2017-10-28T07:03:30.644Z,1019.45
2017-10-28T07:04:30.798Z,1019.56
2017-10-28T07:05:30.593Z,1019.61
2017-10-28T07:06:30.721Z,1019.63
2017-10-28T07:07:30.536Z,1019.67
2017-10-28T07:08:30.722Z,1019.57
2017-10-28T07:09:30.482Z,1019.56
2017-10-28T07:10:30.455Z,1019.59
2017-10-28T07:11:30.429Z,1019.53
2017-10-28T07:12:30.554Z,1019.61
2017-10-28T07:13:30.376Z,1019.61
2017-10-28T07:14:30.560Z,1019.60
2017-10-28T07:15:30.318Z,1019.66
2017-10-28T07:16:30.469Z,1019.61
2017-10-28T07:17:30.266Z,1019.64
2017-10-28T07:18:30.280Z,1019.77
2017-10-28T07:19:30.207Z,1019.75
2017-10-28T07:20:30.294Z,1019.76
2017-10-28T07:21:30.150Z,1019.81
2017-10-28T07:22:30.208Z,1019.83
2017-10-28T07:23:30.106Z,1019.81
2017-10-28T07:24:30.115Z,1019.86
2017-10-28T07:25:30.044Z,1019.79
2017-10-28T07:26:30.129Z,1019.78
2017-10-28T07:27:29.992Z,1019.76
2017-10-28T07:28:30.042Z,1019.70
2017-10-28T07:29:29.932Z,1019.76
2017-10-28T07:30:29.952Z,1019.72
2017-10-28T07:31:29.886Z,1019.77
2017-10-28T07:32:29.978Z,1019.75
2017-10-28T07:33:29.827Z,1019.74
2017-10-28T07:34:29.889Z,1019.78
2017-10-28T07:35:29.805Z,1019.84
2017-10-28T07:36:29.789Z,1019.89
2017-10-28T07:37:29.719Z,1019.90
2017-10-28T07:38:29.805Z,1019.96
2017-10-28T07:39:29.665Z,1019.95
2017-10-28T07:40:29.721Z,1020.00
2017-10-28T07:41:29.611Z,1020.01
2017-10-28T07:42:29.633Z,1020.06
2017-10-28T07:43:29.557Z,1020.09
2017-10-28T07:44:29.646Z,1020.16
2017-10-28T07:45:29.508Z,1020.17
2017-10-28T07:46:29.557Z,1020.14
2017-10-28T07:47:29.447Z,1020.14
2017-10-28T07:48:29.569Z,1020.21
2017-10-28T07:49:29.396Z,1020.20
2017-10-28T07:50:29.483Z,1020.25
2017-10-28T07:51:29.342Z,1020.10
2017-10-28T07:52:29.396Z,1020.07
2017-10-28T07:53:29.290Z,1020.05
2017-10-28T07:54:29.402Z,1019.95
2017-10-28T07:55:29.228Z,1019.90
2017-10-28T07:56:29.318Z,1019.93
2017-10-28T07:57:29.183Z,1019.86
2017-10-28T07:58:29.230Z,1019.79
2017-10-28T07:59:29.124Z,1019.72
2017-10-28T08:00:29.096Z,1019.77
2017-10-28T08:01:29.146Z,1019.79
2017-10-28T08:02:29.039Z,1019.74
2017-10-28T08:03:29.159Z,1019.69
2017-10-28T08:04:28.982Z,1019.63
2017-10-28T08:05:29.072Z,1019.47
2017-10-28T08:06:28.932Z,1019.42
2017-10-28T08:07:28.989Z,1019.39
2017-10-28T08:08:28.887Z,1019.34
2017-10-28T08:09:28.998Z,1019.31
2017-10-28T08:10:28.822Z,1019.40
2017-10-28T08:11:28.906Z,1019.38
2017-10-28T08:12:28.771Z,1019.41
2017-10-28T08:13:28.819Z,1019.47
2017-10-28T08:14:28.717Z,1019.43
2017-10-28T08:15:29.754Z,1019.34
2017-10-28T08:16:28.677Z,1019.37
2017-10-28T08:17:28.743Z,1019.40
2017-10-28T08:18:28.607Z,1019.37
2017-10-28T08:19:28.680Z,1019.37
2017-10-28T08:20:28.568Z,1019.22
2017-10-28T08:21:28.843Z,1019.28
2017-10-28T08:22:28.511Z,1019.34
2017-10-28T08:23:28.589Z,1019.39
2017-10-28T08:24:28.454Z,1019.50
2017-10-28T08:25:28.510Z,1019.59
2017-10-28T08:26:28.398Z,1019.59
2017-10-28T08:27:28.506Z,1019.70
2017-10-28T08:28:28.339Z,1019.68
2017-10-28T08:29:28.312Z,1019.69
2017-10-28T08:30:28.425Z,1019.78
2017-10-28T08:31:28.262Z,1019.70
2017-10-28T08:32:28.348Z,1019.72
2017-10-28T08:33:28.233Z,1019.73
2017-10-28T08:34:28.184Z,1019.72
2017-10-28T08:35:28.194Z,1019.74
2017-10-28T08:36:28.269Z,1019.82
2017-10-28T08:37:28.107Z,1019.72
2017-10-28T08:38:28.179Z,1019.86
2017-10-28T08:39:28.066Z,1019.77
2017-10-28T08:40:28.114Z,1019.69
2017-10-28T08:41:28.022Z,1019.62
2017-10-28T08:42:28.015Z,1019.58
2017-10-28T08:43:27.939Z,1019.58
2017-10-28T08:44:27.946Z,1019.63
2017-10-28T08:45:27.883Z,1019.54
2017-10-28T08:46:27.957Z,1019.51
2017-10-28T08:47:27.861Z,1019.48
2017-10-28T08:48:27.801Z,1019.43
2017-10-28T08:49:27.781Z,1019.42
2017-10-28T08:50:27.861Z,1019.38
2017-10-28T08:51:27.725Z,1019.41
2017-10-28T08:52:27.784Z,1019.39
2017-10-28T08:53:27.669Z,1019.31
2017-10-28T08:54:27.774Z,1019.38
2017-10-28T08:55:27.619Z,1019.31
2017-10-28T08:56:27.680Z,1019.32
2017-10-28T08:57:27.564Z,1019.31
2017-10-28T08:58:27.672Z,1019.24
2017-10-28T08:59:27.509Z,1019.25
2017-10-28T09:00:27.604Z,1019.23
2017-10-28T09:01:27.494Z,1019.38
2017-10-28T09:02:27.625Z,1019.19
2017-10-28T09:03:27.407Z,1019.28
2017-10-28T09:04:27.536Z,1019.24
2017-10-28T09:05:27.369Z,1019.35
2017-10-28T09:06:27.446Z,1019.36
2017-10-28T09:07:27.299Z,1019.33
2017-10-28T09:08:27.464Z,1019.30
2017-10-28T09:09:27.246Z,1019.21
2017-10-28T09:10:27.369Z,1019.12
2017-10-28T09:11:27.189Z,1019.14
2017-10-28T09:12:27.283Z,1019.14
2017-10-28T09:13:27.147Z,1019.20
2017-10-28T09:14:27.299Z,1019.23
2017-10-28T09:15:27.090Z,1019.25
2017-10-28T09:16:27.207Z,1019.40
2017-10-28T09:17:27.038Z,1019.29
2017-10-28T09:18:27.119Z,1019.30
2017-10-28T09:19:26.982Z,1019.18
2017-10-28T09:20:27.135Z,1019.26
2017-10-28T09:21:26.935Z,1019.14
2017-10-28T09:22:27.043Z,1019.10
2017-10-28T09:23:26.876Z,1019.06
2017-10-28T09:24:27.059Z,1019.01
2017-10-28T09:25:26.821Z,1019.04
2017-10-28T09:26:26.969Z,1019.12
2017-10-28T09:27:26.769Z,1019.09
2017-10-28T09:28:26.883Z,1019.14
2017-10-28T09:29:26.716Z,1019.15
2017-10-28T09:30:26.902Z,1019.19
2017-10-28T09:31:26.660Z,1019.17
2017-10-28T09:32:26.806Z,1019.19
2017-10-28T09:33:26.606Z,1019.27
2017-10-28T09:34:26.717Z,1019.12
2017-10-28T09:35:26.557Z,1019.08
2017-10-28T09:36:26.729Z,1019.06
2017-10-28T09:37:26.500Z,1019.10
2017-10-28T09:38:26.541Z,1019.01
2017-10-28T09:39:26.452Z,1019.03
2017-10-28T09:40:26.582Z,1019.02
2017-10-28T09:41:26.401Z,1019.05
2017-10-28T09:42:26.469Z,1018.94
2017-10-28T09:43:26.345Z,1018.89
2017-10-28T09:44:26.378Z,1018.78
2017-10-28T09:45:26.291Z,1018.85
2017-10-28T09:46:26.394Z,1018.80
2017-10-28T09:47:26.239Z,1018.75
2017-10-28T09:48:26.300Z,1018.78
2017-10-28T09:49:26.184Z,1018.81
2017-10-28T09:50:26.213Z,1018.87
2017-10-28T09:51:26.132Z,1018.90
2017-10-28T09:52:26.230Z,1018.82
2017-10-28T09:53:26.083Z,1018.80
2017-10-28T09:54:26.140Z,1018.87
2017-10-28T09:55:26.032Z,1018.82
2017-10-28T09:56:26.052Z,1018.66
2017-10-28T09:57:25.979Z,1018.74
2017-10-28T09:58:26.069Z,1018.73
2017-10-28T09:59:25.933Z,1018.74
2017-10-28T10:00:25.979Z,1018.77
2017-10-28T10:01:25.868Z,1018.69
2017-10-28T10:02:25.866Z,1018.81
2017-10-28T10:03:25.817Z,1018.70
2017-10-28T10:04:25.876Z,1018.76
2017-10-28T10:05:25.780Z,1018.72
2017-10-28T10:06:25.788Z,1018.67
2017-10-28T10:07:25.713Z,1018.66
2017-10-28T10:08:25.725Z,1018.65
2017-10-28T10:09:25.659Z,1018.57
2017-10-28T10:10:25.739Z,1018.59
2017-10-28T10:11:25.607Z,1018.60
2017-10-28T10:12:25.650Z,1018.62
2017-10-28T10:13:25.593Z,1018.53
2017-10-28T10:14:25.665Z,1018.63
2017-10-28T10:15:25.503Z,1018.56
2017-10-28T10:16:25.576Z,1018.62
2017-10-28T10:17:25.448Z,1018.60
2017-10-28T10:18:25.483Z,1018.60
2017-10-28T10:19:25.392Z,1018.68
2017-10-28T10:20:25.502Z,1018.67
2017-10-28T10:21:25.344Z,1018.66
2017-10-28T10:22:25.443Z,1018.63
2017-10-28T10:23:25.287Z,1018.54
2017-10-28T10:24:25.323Z,1018.61
2017-10-28T10:25:25.243Z,1018.52
2017-10-28T10:26:25.338Z,1018.74
2017-10-28T10:27:25.187Z,1018.67
2017-10-28T10:28:25.253Z,1018.61
2017-10-28T10:29:25.134Z,1018.65
2017-10-28T10:30:25.163Z,1018.64
2017-10-28T10:31:25.085Z,1018.68
2017-10-28T10:32:25.175Z,1018.58
2017-10-28T10:33:25.033Z,1018.66
2017-10-28T10:34:25.085Z,1018.63
2017-10-28T10:35:24.973Z,1018.54
2017-10-28T10:36:25.098Z,1018.65
2017-10-28T10:37:25.005Z,1018.53
2017-10-28T10:38:24.898Z,1018.52
2017-10-28T10:39:24.915Z,1018.43
2017-10-28T10:40:24.844Z,1018.52
2017-10-28T10:41:24.928Z,1018.48
2017-10-28T10:42:24.790Z,1018.44
2017-10-28T10:43:24.765Z,1018.42
2017-10-28T10:44:24.866Z,1018.35
2017-10-28T10:45:24.710Z,1018.31
2017-10-28T10:46:24.768Z,1018.35
2017-10-28T10:47:24.659Z,1018.28
2017-10-28T10:48:24.635Z,1018.23
2017-10-28T10:49:24.605Z,1018.21
2017-10-28T10:50:24.683Z,1018.17
2017-10-28T10:51:24.553Z,1018.15
2017-10-28T10:52:24.602Z,1018.08
2017-10-28T10:53:24.501Z,1018.06
2017-10-28T10:54:24.508Z,1018.13
2017-10-28T10:55:24.455Z,1017.97
2017-10-28T10:56:24.522Z,1017.93
2017-10-28T10:57:24.402Z,1017.84
2017-10-28T10:58:24.444Z,1017.82
2017-10-28T10:59:24.342Z,1017.86
2017-10-28T11:00:24.342Z,1017.89
2017-10-28T11:01:24.302Z,1017.77
2017-10-28T11:02:24.391Z,1017.76
2017-10-28T11:03:24.269Z,1017.80
2017-10-28T11:04:24.297Z,1017.80
2017-10-28T11:05:24.192Z,1017.78
2017-10-28T11:06:24.183Z,1017.73
2017-10-28T11:07:24.140Z,1017.78
2017-10-28T11:08:24.199Z,1017.77
2017-10-28T11:09:24.089Z,1017.74
2017-10-28T11:10:24.105Z,1017.69
2017-10-28T11:11:24.033Z,1017.62
2017-10-28T11:12:24.119Z,1017.62
2017-10-28T11:13:23.981Z,1017.58
2017-10-28T11:14:24.031Z,1017.65
2017-10-28T11:15:23.930Z,1017.62
2017-10-28T11:16:23.947Z,1017.68
2017-10-28T11:17:23.880Z,1017.66
2017-10-28T11:18:23.975Z,1017.66
2017-10-28T11:19:23.824Z,1017.66
2017-10-28T11:20:23.869Z,1017.58
2017-10-28T11:21:23.769Z,1017.58
2017-10-28T11:22:24.807Z,1017.55
2017-10-28T11:23:23.725Z,1017.50
2017-10-28T11:24:23.794Z,1017.51
2017-10-28T11:25:23.669Z,1017.55
2017-10-28T11:26:23.706Z,1017.50
2017-10-28T11:27:23.622Z,1017.49
2017-10-28T11:28:23.619Z,1017.53
2017-10-28T11:29:23.565Z,1017.38
2017-10-28T11:30:23.641Z,1017.52
2017-10-28T11:31:23.509Z,1017.49
2017-10-28T11:32:23.546Z,1017.42
2017-10-28T11:33:23.459Z,1017.46
2017-10-28T11:34:23.458Z,1017.35
2017-10-28T11:35:23.404Z,1017.28
2017-10-28T11:36:24.392Z,1017.33
2017-10-28T11:37:23.351Z,1017.31
2017-10-28T11:38:23.382Z,1017.28
2017-10-28T11:39:23.302Z,1017.29
2017-10-28T11:40:23.292Z,1017.31
2017-10-28T11:41:23.253Z,1017.36
2017-10-28T11:42:23.308Z,1017.15
2017-10-28T11:43:23.200Z,1017.27
2017-10-28T11:44:23.219Z,1017.20
2017-10-28T11:45:23.147Z,1017.37
2017-10-28T11:46:23.239Z,1017.30
2017-10-28T11:47:23.120Z,1017.24
2017-10-28T11:48:23.150Z,1017.31
2017-10-28T11:49:23.036Z,1017.21
2017-10-28T11:50:23.061Z,1017.04
2017-10-28T11:51:22.990Z,1017.10
2017-10-28T11:52:23.076Z,1017.08
2017-10-28T11:53:22.941Z,1017.04
2017-10-28T11:54:22.990Z,1016.79
2017-10-28T11:55:22.884Z,1016.86
2017-10-28T11:56:22.908Z,1016.86
2017-10-28T11:57:22.830Z,1016.86
2017-10-28T11:58:22.910Z,1016.90
2017-10-28T11:59:22.780Z,1017.00
2017-10-28T12:00:22.821Z,1016.84
2017-10-28T12:01:22.730Z,1016.88
2017-10-28T12:02:22.732Z,1016.86
2017-10-28T12:03:22.676Z,1016.82
2017-10-28T12:04:22.747Z,1016.75
2017-10-28T12:05:22.637Z,1016.72